createdAt,value
2023-05-10T00:01:22.437Z,13.52
2023-05-10T00:03:49.098Z,13.52
2023-05-10T00:06:15.834Z,13.51
2023-05-10T00:08:42.504Z,13.45
2023-05-10T00:11:09.136Z,13.45
2023-05-10T00:13:35.759Z,13.41
2023-05-10T00:16:02.424Z,13.42
2023-05-10T00:18:29.021Z,13.35
2023-05-10T00:20:55.588Z,13.39
2023-05-10T00:23:22.172Z,13.36
2023-05-10T00:25:48.870Z,13.37
2023-05-10T00:28:16.893Z,13.33
2023-05-10T00:30:43.445Z,13.32
2023-05-10T00:33:10.159Z,13.28
2023-05-10T00:35:37.080Z,13.25
2023-05-10T00:38:03.638Z,13.27
2023-05-10T00:40:34.180Z,13.27
2023-05-10T00:43:02.493Z,13.28
2023-05-10T00:45:29.206Z,13.28
2023-05-10T00:47:57.107Z,13.21
2023-05-10T00:50:24.425Z,13.22
2023-05-10T00:52:51.402Z,13.21
2023-05-10T00:55:19.165Z,13.22
2023-05-10T00:57:46.722Z,13.18
2023-05-10T01:00:14.153Z,13.16
2023-05-10T01:02:41.748Z,13.13
2023-05-10T01:05:08.659Z,13.13
2023-05-10T01:07:35.472Z,13.15
2023-05-10T01:10:02.347Z,13.13
2023-05-10T01:12:29.015Z,13.17
2023-05-10T01:14:56.091Z,13.18
2023-05-10T01:17:23.608Z,13.15
2023-05-10T01:19:50.826Z,13.17
2023-05-10T01:22:45.599Z,13.18
2023-05-10T01:25:46.146Z,13.16
2023-05-10T01:28:27.241Z,13.13
2023-05-10T01:31:10.706Z,13.13
2023-05-10T01:33:47.659Z,13.11
2023-05-10T01:36:30.412Z,13.12
2023-05-10T01:39:00.358Z,13.13
2023-05-10T01:41:53.146Z,13.11
2023-05-10T01:44:40.780Z,13.10
2023-05-10T01:47:12.454Z,13.12
2023-05-10T01:49:48.456Z,13.16
2023-05-10T01:52:18.484Z,13.10
2023-05-10T01:54:54.375Z,13.09
2023-05-10T01:57:23.289Z,13.15
2023-05-10T01:59:51.816Z,13.11
2023-05-10T02:02:21.132Z,13.12
2023-05-10T02:04:50.552Z,13.08
2023-05-10T02:07:19.119Z,13.10
2023-05-10T02:09:50.124Z,13.02
2023-05-10T02:12:18.286Z,13.02
2023-05-10T02:14:46.306Z,12.92
2023-05-10T02:17:13.876Z,12.97
2023-05-10T02:19:42.778Z,13.02
2023-05-10T02:22:10.727Z,13.02
2023-05-10T02:24:38.544Z,12.96
2023-05-10T02:27:06.269Z,12.87
2023-05-10T02:29:34.559Z,12.96
2023-05-10T02:32:02.734Z,12.90
2023-05-10T02:34:30.936Z,12.87
2023-05-10T02:36:58.546Z,12.87
2023-05-10T02:39:29.636Z,12.91
2023-05-10T02:41:58.557Z,12.91
2023-05-10T02:44:28.188Z,12.92
2023-05-10T02:46:57.093Z,12.97
2023-05-10T02:49:23.749Z,12.90
2023-05-10T02:51:58.265Z,12.95
2023-05-10T02:54:30.855Z,13.09
2023-05-10T02:57:04.584Z,13.10
2023-05-10T02:59:32.083Z,13.08
2023-05-10T03:01:58.863Z,13.16
2023-05-10T03:04:25.483Z,13.06
2023-05-10T03:06:54.382Z,13.12
2023-05-10T03:09:22.187Z,13.15
2023-05-10T03:12:02.733Z,13.20
2023-05-10T03:14:51.407Z,13.15
2023-05-10T03:17:30.395Z,13.16
2023-05-10T03:20:05.655Z,13.18
2023-05-10T03:22:39.471Z,13.22
2023-05-10T03:25:09.424Z,13.26
2023-05-10T03:27:40.076Z,13.21
2023-05-10T03:30:13.136Z,13.22
2023-05-10T03:32:40.194Z,13.26
2023-05-10T03:35:10.864Z,13.42
2023-05-10T03:37:37.449Z,13.49
2023-05-10T03:40:04.747Z,13.45
2023-05-10T03:42:31.633Z,13.41
2023-05-10T03:44:58.246Z,13.35
2023-05-10T03:47:24.967Z,13.28
2023-05-10T03:49:51.631Z,13.17
2023-05-10T03:52:18.238Z,13.08
2023-05-10T03:54:44.824Z,13.10
2023-05-10T03:57:11.510Z,13.05
2023-05-10T03:59:38.118Z,12.98
2023-05-10T04:02:04.738Z,12.93
2023-05-10T04:04:35.370Z,12.94
2023-05-10T04:07:01.958Z,12.96
2023-05-10T04:09:28.540Z,12.87
2023-05-10T04:11:57.448Z,12.93
2023-05-10T04:14:27.095Z,12.97
2023-05-10T04:16:53.827Z,12.93
2023-05-10T04:19:20.452Z,12.96
2023-05-10T04:21:46.987Z,13.00
2023-05-10T04:24:15.915Z,13.02
2023-05-10T04:26:55.486Z,13.10
2023-05-10T04:29:23.141Z,13.11
2023-05-10T04:31:49.993Z,13.19
2023-05-10T04:34:16.648Z,13.20
2023-05-10T04:36:43.230Z,13.21
2023-05-10T04:39:12.999Z,13.24
2023-05-10T04:41:39.783Z,13.24
2023-05-10T04:44:06.627Z,13.25
2023-05-10T04:46:33.838Z,13.27
2023-05-10T04:49:00.482Z,13.32
2023-05-10T04:51:29.367Z,13.37
2023-05-10T04:54:05.169Z,13.40
2023-05-10T04:56:32.881Z,13.40
2023-05-10T04:58:59.550Z,13.46
2023-05-10T05:01:26.197Z,13.50
2023-05-10T05:03:54.177Z,13.49
2023-05-10T05:06:22.173Z,13.55
2023-05-10T05:08:50.518Z,13.57
2023-05-10T05:11:18.154Z,13.63
2023-05-10T05:13:44.899Z,13.71
2023-05-10T05:16:12.538Z,13.76
2023-05-10T05:18:39.555Z,13.83
2023-05-10T05:21:19.909Z,13.90
2023-05-10T05:23:47.300Z,13.96
2023-05-10T05:26:13.944Z,14.03
2023-05-10T05:28:40.596Z,14.08
2023-05-10T05:31:10.274Z,14.16
2023-05-10T05:33:37.780Z,14.28
2023-05-10T05:36:05.954Z,14.48
2023-05-10T05:38:32.667Z,14.73
2023-05-10T05:40:59.280Z,15.02
2023-05-10T05:43:30.738Z,15.32
2023-05-10T05:45:59.145Z,15.62
2023-05-10T05:48:26.023Z,15.90
2023-05-10T05:50:56.608Z,16.19
2023-05-10T05:53:24.240Z,16.48
2023-05-10T05:55:59.100Z,16.80
2023-05-10T05:58:29.078Z,17.09
2023-05-10T06:00:55.700Z,17.37
2023-05-10T06:03:22.445Z,17.68
2023-05-10T06:05:49.440Z,18.00
2023-05-10T06:08:16.194Z,18.27
2023-05-10T06:10:42.861Z,18.55
2023-05-10T06:13:09.693Z,18.82
2023-05-10T06:15:36.505Z,19.08
2023-05-10T06:18:03.226Z,19.28
2023-05-10T06:20:30.142Z,19.57
2023-05-10T06:22:56.749Z,19.81
2023-05-10T06:25:23.360Z,19.98
2023-05-10T06:27:52.916Z,20.19
2023-05-10T06:30:20.488Z,20.28
2023-05-10T06:32:47.248Z,20.39
2023-05-10T06:35:13.961Z,20.44
2023-05-10T06:37:40.763Z,20.62
2023-05-10T06:40:08.187Z,20.86
2023-05-10T06:42:34.782Z,21.05
2023-05-10T06:45:01.332Z,21.26
2023-05-10T06:47:28.043Z,21.47
2023-05-10T06:49:54.795Z,21.65
2023-05-10T06:52:21.389Z,21.76
2023-05-10T06:54:50.673Z,21.96
2023-05-10T06:57:31.245Z,22.17
2023-05-10T06:59:58.885Z,22.38
2023-05-10T07:02:28.075Z,22.51
2023-05-10T07:04:59.507Z,22.74
2023-05-10T07:07:27.579Z,23.00
2023-05-10T07:09:54.374Z,23.13
2023-05-10T07:12:21.080Z,23.26
2023-05-10T07:14:47.720Z,23.35
2023-05-10T07:17:14.344Z,23.48
2023-05-10T07:19:41.037Z,23.52
2023-05-10T07:22:10.748Z,23.61
2023-05-10T07:24:37.513Z,23.60
2023-05-10T07:27:04.120Z,23.58
2023-05-10T07:29:30.923Z,23.56
2023-05-10T07:31:58.893Z,23.54
2023-05-10T07:34:26.352Z,23.46
2023-05-10T07:36:56.253Z,23.36
2023-05-10T07:39:27.498Z,23.21
2023-05-10T07:41:59.087Z,23.12
2023-05-10T07:44:25.698Z,23.01
2023-05-10T07:46:52.434Z,22.95
2023-05-10T07:49:26.208Z,23.03
2023-05-10T07:51:54.980Z,23.11
2023-05-10T07:54:21.679Z,23.14
2023-05-10T07:56:48.406Z,23.26
2023-05-10T07:59:18.819Z,23.40
2023-05-10T08:01:45.893Z,23.40
2023-05-10T08:04:12.812Z,23.46
2023-05-10T08:06:40.546Z,23.56
2023-05-10T08:09:07.348Z,23.58
2023-05-10T08:11:35.120Z,23.63
2023-05-10T08:14:02.102Z,23.70
2023-05-10T08:16:28.848Z,23.83
2023-05-10T08:18:56.471Z,23.91
2023-05-10T08:21:23.235Z,23.93
2023-05-10T08:23:50.143Z,23.98
2023-05-10T08:26:16.793Z,24.00
2023-05-10T08:28:43.408Z,24.03
2023-05-10T08:31:10.044Z,24.02
2023-05-10T08:33:36.665Z,24.00
2023-05-10T08:36:03.495Z,23.97
2023-05-10T08:38:30.073Z,23.93
2023-05-10T08:41:00.163Z,23.93
2023-05-10T08:43:31.396Z,23.94
2023-05-10T08:46:07.384Z,23.94
2023-05-10T08:48:35.855Z,23.91
2023-05-10T08:51:04.687Z,23.81
2023-05-10T08:53:34.386Z,23.81
2023-05-10T08:56:03.155Z,23.80
2023-05-10T08:58:33.039Z,23.78
2023-05-10T09:01:00.737Z,23.69
2023-05-10T09:03:30.643Z,23.74
2023-05-10T09:05:57.647Z,23.65
2023-05-10T09:08:28.376Z,23.46
2023-05-10T09:11:00.242Z,23.39
2023-05-10T09:13:27.180Z,23.37
2023-05-10T09:15:54.159Z,23.34
2023-05-10T09:18:21.110Z,23.34
2023-05-10T09:20:48.102Z,23.28
2023-05-10T09:23:17.513Z,23.33
2023-05-10T09:25:44.227Z,23.33
2023-05-10T09:28:11.924Z,23.26
2023-05-10T09:30:38.676Z,23.17
2023-05-10T09:33:05.453Z,23.02
2023-05-10T09:35:33.857Z,22.94
2023-05-10T09:38:11.745Z,22.90
2023-05-10T09:40:38.373Z,22.92
2023-05-10T09:43:08.315Z,22.85
2023-05-10T09:45:39.362Z,22.84
2023-05-10T09:48:07.091Z,22.80
2023-05-10T09:50:35.236Z,22.75
2023-05-10T09:53:04.548Z,22.70
2023-05-10T09:55:37.192Z,22.62
2023-05-10T09:58:03.822Z,22.58
2023-05-10T10:00:38.940Z,22.62
2023-05-10T10:03:06.525Z,22.59
2023-05-10T10:05:35.989Z,22.60
2023-05-10T10:08:06.574Z,22.60
2023-05-10T10:10:39.808Z,22.58
2023-05-10T10:13:06.595Z,22.63
2023-05-10T10:15:35.019Z,22.57
2023-05-10T10:18:02.557Z,22.58
2023-05-10T10:20:29.453Z,22.48
2023-05-10T10:22:56.120Z,22.46
2023-05-10T10:25:23.406Z,22.43
2023-05-10T10:27:52.783Z,22.45
2023-05-10T10:31:03.765Z,22.40
2023-05-10T10:33:51.949Z,22.42
2023-05-10T10:36:21.439Z,22.40
2023-05-10T10:38:47.935Z,22.30
2023-05-10T10:41:37.027Z,22.26
2023-05-10T10:44:26.588Z,22.24
2023-05-10T10:47:31.085Z,22.25
2023-05-10T10:50:01.191Z,22.16
2023-05-10T10:52:34.302Z,22.14
2023-05-10T10:55:14.822Z,22.17
2023-05-10T10:57:41.459Z,22.19
2023-05-10T11:00:23.646Z,22.25
2023-05-10T11:02:50.384Z,22.21
2023-05-10T11:05:39.172Z,22.22
2023-05-10T11:08:11.823Z,22.23
2023-05-10T11:10:41.724Z,22.22
2023-05-10T11:13:10.337Z,22.24
2023-05-10T11:15:40.701Z,22.24
2023-05-10T11:18:29.829Z,22.26
2023-05-10T11:21:06.554Z,22.24
2023-05-10T11:24:09.212Z,22.24
2023-05-10T11:26:36.770Z,22.16
2023-05-10T11:29:05.529Z,22.13
2023-05-10T11:31:32.259Z,22.13
2023-05-10T11:34:00.677Z,22.12
2023-05-10T11:36:29.882Z,22.11
2023-05-10T11:38:57.934Z,22.14
2023-05-10T11:41:33.530Z,22.15
2023-05-10T11:44:00.453Z,22.12
2023-05-10T11:46:29.326Z,22.15
2023-05-10T11:49:03.107Z,22.15
2023-05-10T11:51:37.261Z,22.12
2023-05-10T11:54:13.002Z,22.10
2023-05-10T11:56:40.987Z,22.11
2023-05-10T11:59:09.033Z,22.11
2023-05-10T12:01:37.753Z,22.11
2023-05-10T12:04:04.650Z,22.09
2023-05-10T12:06:33.479Z,22.06
2023-05-10T12:09:00.354Z,22.05
2023-05-10T12:11:28.984Z,21.99
2023-05-10T12:13:58.910Z,21.96
2023-05-10T12:16:29.502Z,21.97
2023-05-10T12:19:04.641Z,21.94
2023-05-10T12:21:34.984Z,21.87
2023-05-10T12:24:06.340Z,21.85
2023-05-10T12:26:38.759Z,21.83
2023-05-10T12:29:19.935Z,21.82
2023-05-10T12:31:57.032Z,21.83
2023-05-10T12:34:28.215Z,21.77
2023-05-10T12:36:58.557Z,21.76
2023-05-10T12:39:25.954Z,21.73
2023-05-10T12:41:53.444Z,21.78
2023-05-10T12:44:22.782Z,21.74
2023-05-10T12:46:52.313Z,21.75
2023-05-10T12:49:20.615Z,21.77
2023-05-10T12:51:49.952Z,21.76
2023-05-10T12:54:16.532Z,21.72
2023-05-10T12:56:43.821Z,21.68
2023-05-10T12:59:11.901Z,21.59
2023-05-10T13:01:38.611Z,21.64
2023-05-10T13:04:14.184Z,21.67
2023-05-10T13:06:40.775Z,21.67
2023-05-10T13:09:08.010Z,21.64
2023-05-10T13:11:34.835Z,21.66
2023-05-10T13:14:01.470Z,21.67
2023-05-10T13:16:28.311Z,21.68
2023-05-10T13:18:57.624Z,21.61
2023-05-10T13:21:25.631Z,21.66
2023-05-10T13:23:52.372Z,21.66
2023-05-10T13:26:20.092Z,21.67
2023-05-10T13:28:47.062Z,21.67
2023-05-10T13:31:13.734Z,21.62
2023-05-10T13:33:40.631Z,21.63
2023-05-10T13:36:07.725Z,21.65
2023-05-10T13:38:36.396Z,21.65
2023-05-10T13:41:02.975Z,21.65
2023-05-10T13:43:32.717Z,21.63
2023-05-10T13:45:59.452Z,21.59
2023-05-10T13:48:26.149Z,21.61
2023-05-10T13:50:52.821Z,21.66
2023-05-10T13:53:22.221Z,21.67
2023-05-10T13:55:50.755Z,21.70
2023-05-10T13:58:17.501Z,21.74
2023-05-10T14:00:46.811Z,21.77
2023-05-10T14:03:16.318Z,21.77
2023-05-10T14:05:42.966Z,21.80
2023-05-10T14:08:10.983Z,21.81
2023-05-10T14:10:38.022Z,21.81
2023-05-10T14:13:04.609Z,21.83
2023-05-10T14:15:34.333Z,21.84
2023-05-10T14:18:03.267Z,21.85
2023-05-10T14:20:32.116Z,21.85
2023-05-10T14:23:01.420Z,21.82
2023-05-10T14:25:28.131Z,21.84
2023-05-10T14:27:55.731Z,21.82
2023-05-10T14:30:22.508Z,21.84
2023-05-10T14:32:49.171Z,21.88
2023-05-10T14:35:19.662Z,21.85
2023-05-10T14:37:47.966Z,21.84
2023-05-10T14:40:16.279Z,21.85
2023-05-10T14:42:43.541Z,21.85
2023-05-10T14:45:13.192Z,21.85
2023-05-10T14:47:40.914Z,21.82
2023-05-10T14:50:08.093Z,21.75
2023-05-10T14:52:34.683Z,21.75
2023-05-10T14:55:02.300Z,21.72
2023-05-10T14:57:30.677Z,21.73
2023-05-10T14:59:58.081Z,21.72
2023-05-10T15:02:25.226Z,21.70
2023-05-10T15:04:54.902Z,21.69
2023-05-10T15:07:21.899Z,21.61
2023-05-10T15:09:48.531Z,21.59
2023-05-10T15:12:15.105Z,21.56
2023-05-10T15:14:41.712Z,21.54
2023-05-10T15:17:08.831Z,21.51
2023-05-10T15:19:35.441Z,21.49
2023-05-10T15:22:02.101Z,21.48
2023-05-10T15:24:30.922Z,21.43
2023-05-10T15:26:57.469Z,21.39
2023-05-10T15:29:24.118Z,21.38
2023-05-10T15:31:52.096Z,21.31
2023-05-10T15:34:21.732Z,21.29
2023-05-10T15:36:48.353Z,21.25
2023-05-10T15:39:14.967Z,21.23
2023-05-10T15:41:43.121Z,21.22
2023-05-10T15:44:09.677Z,21.13
2023-05-10T15:46:39.295Z,21.03
2023-05-10T15:49:06.824Z,20.98
2023-05-10T15:51:36.847Z,20.93
2023-05-10T15:54:07.613Z,20.88
2023-05-10T15:56:35.377Z,20.77
2023-05-10T15:59:02.183Z,20.74
2023-05-10T16:01:29.219Z,20.71
2023-05-10T16:03:55.972Z,20.67
2023-05-10T16:06:22.615Z,20.62
2023-05-10T16:08:49.292Z,20.56
2023-05-10T16:11:16.068Z,20.52
2023-05-10T16:13:42.719Z,20.46
2023-05-10T16:16:09.506Z,20.43
2023-05-10T16:18:36.424Z,20.35
2023-05-10T16:21:03.382Z,20.30
2023-05-10T16:23:30.752Z,20.26
2023-05-10T16:25:57.353Z,20.20
2023-05-10T16:28:23.967Z,20.15
2023-05-10T16:30:51.347Z,20.11
2023-05-10T16:33:17.967Z,20.07
2023-05-10T16:35:44.607Z,20.05
2023-05-10T16:38:11.431Z,20.00
2023-05-10T16:40:38.176Z,19.97
2023-05-10T16:43:04.796Z,19.95
2023-05-10T16:45:32.745Z,19.90
2023-05-10T16:48:02.381Z,19.90
2023-05-10T16:50:29.000Z,19.88
2023-05-10T16:52:55.601Z,19.81
2023-05-10T16:55:24.777Z,19.79
2023-05-10T16:57:52.730Z,19.78
2023-05-10T17:00:20.965Z,19.67
2023-05-10T17:02:47.719Z,19.59
2023-05-10T17:05:14.555Z,19.58
2023-05-10T17:07:41.326Z,19.54
2023-05-10T17:10:08.434Z,19.49
2023-05-10T17:12:35.205Z,19.43
2023-05-10T17:15:01.954Z,19.36
2023-05-10T17:17:28.804Z,19.33
2023-05-10T17:19:55.944Z,19.28
2023-05-10T17:22:22.557Z,19.19
2023-05-10T17:24:51.438Z,19.14
2023-05-10T17:27:18.385Z,19.06
2023-05-10T17:29:45.081Z,19.02
2023-05-10T17:32:11.693Z,18.96
2023-05-10T17:34:39.000Z,18.97
2023-05-10T17:37:05.638Z,18.86
2023-05-10T17:39:32.277Z,18.85
2023-05-10T17:41:58.945Z,18.77
2023-05-10T17:44:26.075Z,18.72
2023-05-10T17:46:52.653Z,18.66
2023-05-10T17:49:19.326Z,18.64
2023-05-10T17:51:48.168Z,18.64
2023-05-10T17:54:15.213Z,18.64
2023-05-10T17:56:42.108Z,18.60
2023-05-10T17:59:08.882Z,18.55
2023-05-10T18:01:35.994Z,18.53
2023-05-10T18:04:02.715Z,18.53
2023-05-10T18:06:29.413Z,18.52
2023-05-10T18:08:56.258Z,18.48
2023-05-10T18:11:22.991Z,18.44
2023-05-10T18:13:49.622Z,18.42
2023-05-10T18:16:16.296Z,18.37
2023-05-10T18:18:42.957Z,18.30
2023-05-10T18:21:09.625Z,18.25
2023-05-10T18:23:36.231Z,18.21
2023-05-10T18:26:06.264Z,18.18
2023-05-10T18:28:35.119Z,18.11
2023-05-10T18:31:01.894Z,18.06
2023-05-10T18:33:28.682Z,18.04
2023-05-10T18:35:55.327Z,17.97
2023-05-10T18:38:22.161Z,17.93
2023-05-10T18:40:48.773Z,17.92
2023-05-10T18:43:15.407Z,17.88
2023-05-10T18:45:42.072Z,17.84
2023-05-10T18:48:08.706Z,17.77
2023-05-10T18:50:35.297Z,17.70
2023-05-10T18:53:02.226Z,17.69
2023-05-10T18:55:28.858Z,17.66
2023-05-10T18:57:55.525Z,17.63
2023-05-10T19:00:22.275Z,17.55
2023-05-10T19:02:48.999Z,17.51
2023-05-10T19:05:16.299Z,17.45
2023-05-10T19:07:44.022Z,17.42
2023-05-10T19:10:12.750Z,17.41
2023-05-10T19:12:41.378Z,17.36
2023-05-10T19:15:08.893Z,17.35
2023-05-10T19:17:36.917Z,17.34
2023-05-10T19:20:05.884Z,17.33
2023-05-10T19:22:45.548Z,17.32
2023-05-10T19:25:21.074Z,17.20
2023-05-10T19:27:47.813Z,17.20
2023-05-10T19:30:14.447Z,17.20
2023-05-10T19:32:44.220Z,17.16
2023-05-10T19:35:12.721Z,17.11
2023-05-10T19:37:39.325Z,17.10
2023-05-10T19:40:06.820Z,17.08
2023-05-10T19:42:33.590Z,17.04
2023-05-10T19:45:00.269Z,17.00
2023-05-10T19:47:26.995Z,16.96
2023-05-10T19:49:54.125Z,16.91
2023-05-10T19:52:20.848Z,16.93
2023-05-10T19:54:47.551Z,16.92
2023-05-10T19:57:14.212Z,16.90
2023-05-10T19:59:40.887Z,16.89
2023-05-10T20:02:09.506Z,16.88
2023-05-10T20:04:36.197Z,16.86
2023-05-10T20:07:02.933Z,16.80
2023-05-10T20:09:29.509Z,16.79
2023-05-10T20:11:56.109Z,16.76
2023-05-10T20:14:22.672Z,16.74
2023-05-10T20:16:49.281Z,16.70
2023-05-10T20:19:15.970Z,16.69
2023-05-10T20:21:42.858Z,16.68
2023-05-10T20:24:09.650Z,16.69
2023-05-10T20:26:36.262Z,16.66
2023-05-10T20:29:02.933Z,16.60
2023-05-10T20:31:29.515Z,16.58
2023-05-10T20:33:56.169Z,16.58
2023-05-10T20:36:22.826Z,16.54
2023-05-10T20:38:49.415Z,16.54
2023-05-10T20:41:16.133Z,16.51
2023-05-10T20:43:42.705Z,16.49
2023-05-10T20:46:09.333Z,16.47
2023-05-10T20:48:36.015Z,16.51
2023-05-10T20:51:05.294Z,16.51
2023-05-10T20:53:31.898Z,16.51
2023-05-10T20:55:58.595Z,16.48
2023-05-10T20:58:25.174Z,16.44
2023-05-10T21:00:51.787Z,16.45
2023-05-10T21:03:18.485Z,16.45
2023-05-10T21:05:45.137Z,16.36
2023-05-10T21:08:11.732Z,16.29
2023-05-10T21:10:38.346Z,16.25
2023-05-10T21:13:05.001Z,16.28
2023-05-10T21:15:31.613Z,16.31
2023-05-10T21:17:58.665Z,16.28
2023-05-10T21:20:25.557Z,16.28
2023-05-10T21:22:52.178Z,16.25
2023-05-10T21:25:18.892Z,16.28
2023-05-10T21:27:45.926Z,16.27
2023-05-10T21:30:12.849Z,16.29
2023-05-10T21:32:39.518Z,16.27
2023-05-10T21:35:06.691Z,16.29
2023-05-10T21:37:33.353Z,16.22
2023-05-10T21:40:00.826Z,16.22
2023-05-10T21:42:27.492Z,16.21
2023-05-10T21:44:54.387Z,16.19
2023-05-10T21:47:20.992Z,16.15
2023-05-10T21:49:47.923Z,16.07
2023-05-10T21:52:17.078Z,16.07
2023-05-10T21:54:43.752Z,16.08
2023-05-10T21:57:10.319Z,16.06
2023-05-10T21:59:36.873Z,16.07
2023-05-10T22:02:03.724Z,16.08
2023-05-10T22:04:30.968Z,16.07
2023-05-10T22:06:57.574Z,16.03
2023-05-10T22:09:25.448Z,16.01
2023-05-10T22:11:52.160Z,16.00
2023-05-10T22:14:18.714Z,15.95
2023-05-10T22:16:45.473Z,15.92
2023-05-10T22:19:12.138Z,15.95
2023-05-10T22:21:38.743Z,15.99
2023-05-10T22:24:05.492Z,15.94
2023-05-10T22:26:32.116Z,15.93
2023-05-10T22:28:58.708Z,15.92
2023-05-10T22:31:25.498Z,15.87
2023-05-10T22:33:52.189Z,15.89
2023-05-10T22:36:18.790Z,15.77
2023-05-10T22:38:45.922Z,15.74
2023-05-10T22:41:12.750Z,15.79
2023-05-10T22:43:39.515Z,15.73
2023-05-10T22:46:06.089Z,15.73
2023-05-10T22:48:34.738Z,15.67
2023-05-10T22:51:01.460Z,15.59
2023-05-10T22:53:28.047Z,15.64
2023-05-10T22:55:54.716Z,15.63
2023-05-10T22:58:21.409Z,15.59
2023-05-10T23:00:47.999Z,15.56
2023-05-10T23:03:14.771Z,15.58
2023-05-10T23:05:41.387Z,15.58
2023-05-10T23:08:08.106Z,15.50
2023-05-10T23:10:34.698Z,15.49
2023-05-10T23:13:01.296Z,15.50
2023-05-10T23:15:27.866Z,15.48
2023-05-10T23:17:54.467Z,15.42
2023-05-10T23:20:21.495Z,15.43
2023-05-10T23:22:48.405Z,15.40
2023-05-10T23:25:15.012Z,15.36
2023-05-10T23:27:41.597Z,15.35
2023-05-10T23:30:08.799Z,15.36
2023-05-10T23:32:35.898Z,15.32
2023-05-10T23:35:02.556Z,15.27
2023-05-10T23:37:29.296Z,15.26
2023-05-10T23:39:55.944Z,15.22
2023-05-10T23:42:22.658Z,15.22
2023-05-10T23:44:50.931Z,15.21
2023-05-10T23:47:17.518Z,15.14
2023-05-10T23:49:44.168Z,15.18
2023-05-10T23:52:10.826Z,15.16
2023-05-10T23:54:37.509Z,15.14
2023-05-10T23:57:04.287Z,15.16
2023-05-10T23:59:31.331Z,15.17
